Contact Us:
Email: info@sawbill.com
Phone: (218)663-7150
Fax: (218)663-7980
Mail: 4620 Sawbill Trail
Box 2129
Tofte, MN 55615


Powered by
Movable Type 3.15
 
Sawbill Weather History Archives: September 2016
Current Sawbill Weather History | « August 2016 | October 2016 »


Date

High
Temperature

Low
Temperature

Barometric
Pressure

Relative
Humidity 7AM

9 AM
Temperature

Moisture

Snow

9/30/16 64 43 30.22 87% 46 0
9/29/16 58 40 30.36 93% 46 0
9/28/16 55 49 30.36 86% 49 0
9/27/16 50 45 30.06 95% 49 .48"
9/26/16 50 45 29.74 98% 45 .98"
9/25/16 63 49 29.76 95% 49 .49"
9/24/16 64 52 30.00 91% 57 Trace
9/23/16 62 42 30.16 90% 52 .04"
9/22/16 63 41 30.20 75% 42 0
9/21/16 60 46 30.12 87% 51 .08"
9/20/16 66 46 30.12 75% 46 0
9/19/16 67 48 30.04 57% 50 0
9/18/16 71 58 29.96 85% 55 .15"
9/17/16 64 55 29.92 96% 55 .52"
9/16/16 64 56 29.84 98% 57 1.24"
9/15/16 65 40 29.96 98% 59 .26"
9/14/16 59 39 30.15 77% 39 0
9/13/16 60 46 30.18 84% 46 .02"
9/12/16 70 53 30.04 83% 53 .11"
9/11/16 67 50 29.90 86% 54 0
9/10/16 63 50 30.01 87% 46 Trace
9/9/16 70 48 29.94 95% 53 .52"
9/8/16 67 48 29.90 84% 48 Trace
9/7/16 68 52 29.90 98% 50 .27"
9/7/16 68 57 29.84 98% 58 .49"
9/6/16 68 54 30.04 98% 58 Trace
9/5/16 68 61 29.96 98% 65 1"
9/4/16 72 53 29.92 93% 62 .27"
9/3/16 68 51 30.07 88% 53 0
9/2/16 69 50 30.12 81% 54 0
9/1/16 67 50 30.24 84% 50 0
 


Home I Trip Planning I Rentals and Outfitting I Reservations I Campgrounds I Sawbill Store I Sawbill News I Contact

© 1997 - 2017, Sawbill Canoe Outfitters, Inc. I Privacy Policy